sensor_id;sensor_type;location;lat;lon;timestamp;temperature;humidity
18384;DHT22;9318;48.644;9.456;2023-10-13T00:01:20;16.50;99.90
18384;DHT22;9318;48.644;9.456;2023-10-13T00:03:48;16.50;99.90
18384;DHT22;9318;48.644;9.456;2023-10-13T00:06:16;16.50;99.90
18384;DHT22;9318;48.644;9.456;2023-10-13T00:08:43;16.50;99.90
18384;DHT22;9318;48.644;9.456;2023-10-13T00:11:12;16.60;99.90
18384;DHT22;9318;48.644;9.456;2023-10-13T00:13:38;16.60;99.90
18384;DHT22;9318;48.644;9.456;2023-10-13T00:16:15;16.60;99.90
18384;DHT22;9318;48.644;9.456;2023-10-13T00:18:43;16.60;99.90
18384;DHT22;9318;48.644;9.456;2023-10-13T00:21:11;16.60;99.90
18384;DHT22;9318;48.644;9.456;2023-10-13T00:23:46;16.50;99.90
18384;DHT22;9318;48.644;9.456;2023-10-13T00:26:19;16.50;99.90
18384;DHT22;9318;48.644;9.456;2023-10-13T00:28:49;16.40;99.90
18384;DHT22;9318;48.644;9.456;2023-10-13T00:31:24;16.40;99.90
18384;DHT22;9318;48.644;9.456;2023-10-13T00:33:57;16.40;99.90
18384;DHT22;9318;48.644;9.456;2023-10-13T00:36:29;16.30;99.90
18384;DHT22;9318;48.644;9.456;2023-10-13T00:38:57;16.30;99.90
18384;DHT22;9318;48.644;9.456;2023-10-13T00:41:24;16.20;99.90
18384;DHT22;9318;48.644;9.456;2023-10-13T00:44:13;16.10;99.90
18384;DHT22;9318;48.644;9.456;2023-10-13T00:46:42;16.00;99.90
18384;DHT22;9318;48.644;9.456;2023-10-13T00:49:11;16.00;99.90
18384;DHT22;9318;48.644;9.456;2023-10-13T00:51:42;15.90;99.90
18384;DHT22;9318;48.644;9.456;2023-10-13T00:54:13;15.80;99.90
18384;DHT22;9318;48.644;9.456;2023-10-13T00:56:40;15.70;99.90
18384;DHT22;9318;48.644;9.456;2023-10-13T00:59:13;15.60;99.90
18384;DHT22;9318;48.644;9.456;2023-10-13T01:01:39;15.60;99.90
18384;DHT22;9318;48.644;9.456;2023-10-13T01:04:09;15.50;99.90
18384;DHT22;9318;48.644;9.456;2023-10-13T01:06:37;15.50;99.90
18384;DHT22;9318;48.644;9.456;2023-10-13T01:09:07;15.50;99.90
18384;DHT22;9318;48.644;9.456;2023-10-13T01:11:40;15.50;99.90
18384;DHT22;9318;48.644;9.456;2023-10-13T01:14:06;15.40;99.90
18384;DHT22;9318;48.644;9.456;2023-10-13T01:16:33;15.40;99.90
18384;DHT22;9318;48.644;9.456;2023-10-13T01:18:59;15.40;99.90
18384;DHT22;9318;48.644;9.456;2023-10-13T01:21:30;15.30;99.90
18384;DHT22;9318;48.644;9.456;2023-10-13T01:24:00;15.30;99.90
18384;DHT22;9318;48.644;9.456;2023-10-13T01:26:26;15.30;99.90
18384;DHT22;9318;48.644;9.456;2023-10-13T01:28:57;15.30;99.90
18384;DHT22;9318;48.644;9.456;2023-10-13T01:31:24;15.40;99.90
18384;DHT22;9318;48.644;9.456;2023-10-13T01:33:52;15.40;99.90
18384;DHT22;9318;48.644;9.456;2023-10-13T01:36:23;15.40;99.90
18384;DHT22;9318;48.644;9.456;2023-10-13T01:38:49;15.40;99.90
18384;DHT22;9318;48.644;9.456;2023-10-13T01:41:18;15.40;99.90
18384;DHT22;9318;48.644;9.456;2023-10-13T01:43:44;15.40;99.90
18384;DHT22;9318;48.644;9.456;2023-10-13T01:46:11;15.40;99.90
18384;DHT22;9318;48.644;9.456;2023-10-13T01:48:39;15.30;99.90
18384;DHT22;9318;48.644;9.456;2023-10-13T01:51:06;15.30;99.90
18384;DHT22;9318;48.644;9.456;2023-10-13T01:53:36;15.20;99.90
18384;DHT22;9318;48.644;9.456;2023-10-13T01:56:04;15.20;99.90
18384;DHT22;9318;48.644;9.456;2023-10-13T01:58:38;15.20;99.90
18384;DHT22;9318;48.644;9.456;2023-10-13T02:01:07;15.10;99.90
18384;DHT22;9318;48.644;9.456;2023-10-13T02:03:34;15.00;99.90
18384;DHT22;9318;48.644;9.456;2023-10-13T02:06:06;15.00;99.90
18384;DHT22;9318;48.644;9.456;2023-10-13T02:08:35;15.00;99.90
18384;DHT22;9318;48.644;9.456;2023-10-13T02:11:08;14.90;99.90
18384;DHT22;9318;48.644;9.456;2023-10-13T02:13:36;14.90;99.90
18384;DHT22;9318;48.644;9.456;2023-10-13T02:16:08;14.80;99.90
18384;DHT22;9318;48.644;9.456;2023-10-13T02:18:34;14.70;99.90
18384;DHT22;9318;48.644;9.456;2023-10-13T02:21:07;14.70;99.90
18384;DHT22;9318;48.644;9.456;2023-10-13T02:23:39;14.60;99.90
18384;DHT22;9318;48.644;9.456;2023-10-13T02:26:09;14.50;99.90
18384;DHT22;9318;48.644;9.456;2023-10-13T02:28:39;14.50;99.90
18384;DHT22;9318;48.644;9.456;2023-10-13T02:31:06;14.50;99.90
18384;DHT22;9318;48.644;9.456;2023-10-13T02:33:32;14.50;99.90
18384;DHT22;9318;48.644;9.456;2023-10-13T02:36:01;14.40;99.90
18384;DHT22;9318;48.644;9.456;2023-10-13T02:38:30;14.40;99.90
18384;DHT22;9318;48.644;9.456;2023-10-13T02:41:00;14.30;99.90
18384;DHT22;9318;48.644;9.456;2023-10-13T02:43:32;14.40;99.90
18384;DHT22;9318;48.644;9.456;2023-10-13T02:46:02;14.30;99.90
18384;DHT22;9318;48.644;9.456;2023-10-13T02:48:29;14.30;99.90
18384;DHT22;9318;48.644;9.456;2023-10-13T02:51:06;14.30;99.90
18384;DHT22;9318;48.644;9.456;2023-10-13T02:53:41;14.30;99.90
18384;DHT22;9318;48.644;9.456;2023-10-13T02:56:07;14.20;99.90
18384;DHT22;9318;48.644;9.456;2023-10-13T02:58:34;14.20;99.90
18384;DHT22;9318;48.644;9.456;2023-10-13T03:01:11;14.20;99.90
18384;DHT22;9318;48.644;9.456;2023-10-13T03:03:45;14.20;99.90
18384;DHT22;9318;48.644;9.456;2023-10-13T03:06:14;14.10;99.90
18384;DHT22;9318;48.644;9.456;2023-10-13T03:08:41;14.10;99.90
18384;DHT22;9318;48.644;9.456;2023-10-13T03:11:09;14.10;99.90
18384;DHT22;9318;48.644;9.456;2023-10-13T03:13:37;14.00;99.90
18384;DHT22;9318;48.644;9.456;2023-10-13T03:16:12;14.00;99.90
18384;DHT22;9318;48.644;9.456;2023-10-13T03:18:42;14.00;99.90
18384;DHT22;9318;48.644;9.456;2023-10-13T03:21:17;13.90;99.90
18384;DHT22;9318;48.644;9.456;2023-10-13T03:23:54;13.90;99.90
18384;DHT22;9318;48.644;9.456;2023-10-13T03:26:20;13.80;99.90
18384;DHT22;9318;48.644;9.456;2023-10-13T03:28:47;13.80;99.90
18384;DHT22;9318;48.644;9.456;2023-10-13T03:31:19;13.80;99.90
18384;DHT22;9318;48.644;9.456;2023-10-13T03:33:52;13.80;99.90
18384;DHT22;9318;48.644;9.456;2023-10-13T03:36:25;13.80;99.90
18384;DHT22;9318;48.644;9.456;2023-10-13T03:39:08;13.80;99.90
18384;DHT22;9318;48.644;9.456;2023-10-13T03:41:36;13.80;99.90
18384;DHT22;9318;48.644;9.456;2023-10-13T03:44:05;13.80;99.90
18384;DHT22;9318;48.644;9.456;2023-10-13T03:46:39;13.80;99.90
18384;DHT22;9318;48.644;9.456;2023-10-13T03:49:08;13.80;99.90
18384;DHT22;9318;48.644;9.456;2023-10-13T03:51:39;13.70;99.90
18384;DHT22;9318;48.644;9.456;2023-10-13T03:54:06;13.60;99.90
18384;DHT22;9318;48.644;9.456;2023-10-13T03:56:34;13.60;99.90
18384;DHT22;9318;48.644;9.456;2023-10-13T03:59:06;13.60;99.90
18384;DHT22;9318;48.644;9.456;2023-10-13T04:01:35;13.50;99.90
18384;DHT22;9318;48.644;9.456;2023-10-13T04:04:13;13.40;99.90
18384;DHT22;9318;48.644;9.456;2023-10-13T04:06:41;13.40;99.90
18384;DHT22;9318;48.644;9.456;2023-10-13T04:09:18;13.40;99.90
18384;DHT22;9318;48.644;9.456;2023-10-13T04:12:04;13.30;99.90
18384;DHT22;9318;48.644;9.456;2023-10-13T04:15:01;13.20;99.90
18384;DHT22;9318;48.644;9.456;2023-10-13T04:17:49;13.20;99.90
18384;DHT22;9318;48.644;9.456;2023-10-13T04:20:17;13.10;99.90
18384;DHT22;9318;48.644;9.456;2023-10-13T04:23:07;13.10;99.90
18384;DHT22;9318;48.644;9.456;2023-10-13T04:25:44;13.10;99.90
18384;DHT22;9318;48.644;9.456;2023-10-13T04:28:29;13.10;99.90
18384;DHT22;9318;48.644;9.456;2023-10-13T04:31:03;13.10;99.90
18384;DHT22;9318;48.644;9.456;2023-10-13T04:33:49;13.20;99.90
18384;DHT22;9318;48.644;9.456;2023-10-13T04:36:23;13.20;99.90
18384;DHT22;9318;48.644;9.456;2023-10-13T04:39:10;13.20;99.90
18384;DHT22;9318;48.644;9.456;2023-10-13T04:41:40;13.30;99.90
18384;DHT22;9318;48.644;9.456;2023-10-13T04:44:09;13.30;99.90
18384;DHT22;9318;48.644;9.456;2023-10-13T04:47:09;13.30;99.90
18384;DHT22;9318;48.644;9.456;2023-10-13T04:49:43;13.30;99.90
18384;DHT22;9318;48.644;9.456;2023-10-13T04:52:18;13.20;99.90
18384;DHT22;9318;48.644;9.456;2023-10-13T04:55:04;13.20;99.90
18384;DHT22;9318;48.644;9.456;2023-10-13T04:57:50;13.10;99.90
18384;DHT22;9318;48.644;9.456;2023-10-13T05:00:25;13.10;99.90
18384;DHT22;9318;48.644;9.456;2023-10-13T05:03:10;13.00;99.90
18384;DHT22;9318;48.644;9.456;2023-10-13T05:05:54;13.00;99.90
18384;DHT22;9318;48.644;9.456;2023-10-13T05:08:47;13.00;99.90
18384;DHT22;9318;48.644;9.456;2023-10-13T05:11:32;13.00;99.90
18384;DHT22;9318;48.644;9.456;2023-10-13T05:14:16;13.00;99.90
18384;DHT22;9318;48.644;9.456;2023-10-13T05:17:00;12.90;99.90
18384;DHT22;9318;48.644;9.456;2023-10-13T05:19:44;12.90;99.90
18384;DHT22;9318;48.644;9.456;2023-10-13T05:22:28;12.90;99.90
18384;DHT22;9318;48.644;9.456;2023-10-13T05:25:14;12.90;99.90
18384;DHT22;9318;48.644;9.456;2023-10-13T05:27:58;12.90;99.90
18384;DHT22;9318;48.644;9.456;2023-10-13T05:30:42;12.90;99.90
18384;DHT22;9318;48.644;9.456;2023-10-13T05:33:27;12.90;99.90
18384;DHT22;9318;48.644;9.456;2023-10-13T05:36:11;13.00;99.90
18384;DHT22;9318;48.644;9.456;2023-10-13T05:38:55;13.00;99.90
18384;DHT22;9318;48.644;9.456;2023-10-13T05:41:41;13.00;99.90
18384;DHT22;9318;48.644;9.456;2023-10-13T05:44:25;13.00;99.90
18384;DHT22;9318;48.644;9.456;2023-10-13T05:47:03;13.00;99.90
18384;DHT22;9318;48.644;9.456;2023-10-13T05:50:09;13.00;99.90
18384;DHT22;9318;48.644;9.456;2023-10-13T05:52:54;13.00;99.90
18384;DHT22;9318;48.644;9.456;2023-10-13T05:55:38;13.00;99.90
18384;DHT22;9318;48.644;9.456;2023-10-13T05:58:23;13.00;99.90
18384;DHT22;9318;48.644;9.456;2023-10-13T06:01:12;13.00;99.90
18384;DHT22;9318;48.644;9.456;2023-10-13T06:03:56;13.10;99.90
18384;DHT22;9318;48.644;9.456;2023-10-13T06:06:40;13.10;99.90
18384;DHT22;9318;48.644;9.456;2023-10-13T06:09:24;13.20;99.90
18384;DHT22;9318;48.644;9.456;2023-10-13T06:12:08;13.20;99.90
18384;DHT22;9318;48.644;9.456;2023-10-13T06:14:54;13.30;99.90
18384;DHT22;9318;48.644;9.456;2023-10-13T06:17:38;13.40;99.90
18384;DHT22;9318;48.644;9.456;2023-10-13T06:20:22;13.60;99.90
18384;DHT22;9318;48.644;9.456;2023-10-13T06:23:06;13.70;99.90
18384;DHT22;9318;48.644;9.456;2023-10-13T06:25:50;13.90;99.90
18384;DHT22;9318;48.644;9.456;2023-10-13T06:28:35;14.20;99.90
18384;DHT22;9318;48.644;9.456;2023-10-13T06:31:10;14.60;99.90
18384;DHT22;9318;48.644;9.456;2023-10-13T06:33:40;15.20;99.90
18384;DHT22;9318;48.644;9.456;2023-10-13T06:36:10;15.70;99.90
18384;DHT22;9318;48.644;9.456;2023-10-13T06:38:37;16.20;99.90
18384;DHT22;9318;48.644;9.456;2023-10-13T06:41:05;16.50;99.90
18384;DHT22;9318;48.644;9.456;2023-10-13T06:43:32;16.80;99.90
18384;DHT22;9318;48.644;9.456;2023-10-13T06:46:04;16.80;99.90
18384;DHT22;9318;48.644;9.456;2023-10-13T06:48:34;16.90;99.90
18384;DHT22;9318;48.644;9.456;2023-10-13T06:51:01;17.10;99.90
18384;DHT22;9318;48.644;9.456;2023-10-13T06:53:39;17.50;99.90
18384;DHT22;9318;48.644;9.456;2023-10-13T06:56:11;18.20;99.90
18384;DHT22;9318;48.644;9.456;2023-10-13T06:58:43;18.80;99.90
18384;DHT22;9318;48.644;9.456;2023-10-13T07:01:12;19.00;99.90
18384;DHT22;9318;48.644;9.456;2023-10-13T07:03:48;19.40;99.90
18384;DHT22;9318;48.644;9.456;2023-10-13T07:06:18;20.00;99.90
18384;DHT22;9318;48.644;9.456;2023-10-13T07:08:45;20.80;99.90
18384;DHT22;9318;48.644;9.456;2023-10-13T07:11:17;21.80;99.90
18384;DHT22;9318;48.644;9.456;2023-10-13T07:13:48;22.70;99.90
18384;DHT22;9318;48.644;9.456;2023-10-13T07:16:17;23.30;99.90
18384;DHT22;9318;48.644;9.456;2023-10-13T07:18:45;23.40;99.90
18384;DHT22;9318;48.644;9.456;2023-10-13T07:21:19;23.60;99.90
18384;DHT22;9318;48.644;9.456;2023-10-13T07:23:50;23.90;99.90
18384;DHT22;9318;48.644;9.456;2023-10-13T07:26:26;24.40;99.90
18384;DHT22;9318;48.644;9.456;2023-10-13T07:28:54;25.10;99.90
18384;DHT22;9318;48.644;9.456;2023-10-13T07:31:21;25.60;99.90
18384;DHT22;9318;48.644;9.456;2023-10-13T07:33:52;25.70;99.90
18384;DHT22;9318;48.644;9.456;2023-10-13T07:36:31;25.90;99.90
18384;DHT22;9318;48.644;9.456;2023-10-13T07:39:05;26.40;99.90
18384;DHT22;9318;48.644;9.456;2023-10-13T07:41:46;26.80;99.90
18384;DHT22;9318;48.644;9.456;2023-10-13T07:44:17;28.00;99.90
18384;DHT22;9318;48.644;9.456;2023-10-13T07:46:45;28.80;97.00
18384;DHT22;9318;48.644;9.456;2023-10-13T07:49:23;29.90;95.30
18384;DHT22;9318;48.644;9.456;2023-10-13T07:51:52;30.60;93.00
18384;DHT22;9318;48.644;9.456;2023-10-13T07:54:22;31.00;91.40
18384;DHT22;9318;48.644;9.456;2023-10-13T07:56:50;31.50;88.90
18384;DHT22;9318;48.644;9.456;2023-10-13T07:59:17;31.50;87.70
18384;DHT22;9318;48.644;9.456;2023-10-13T08:01:47;31.60;87.20
18384;DHT22;9318;48.644;9.456;2023-10-13T08:04:34;32.10;85.10
18384;DHT22;9318;48.644;9.456;2023-10-13T08:07:03;32.40;82.40
18384;DHT22;9318;48.644;9.456;2023-10-13T08:09:38;32.20;82.60
18384;DHT22;9318;48.644;9.456;2023-10-13T08:12:07;32.80;82.50
18384;DHT22;9318;48.644;9.456;2023-10-13T08:14:37;33.20;80.80
18384;DHT22;9318;48.644;9.456;2023-10-13T08:17:06;33.20;79.10
18384;DHT22;9318;48.644;9.456;2023-10-13T08:19:36;33.90;76.70
18384;DHT22;9318;48.644;9.456;2023-10-13T08:22:12;34.10;76.00
18384;DHT22;9318;48.644;9.456;2023-10-13T08:24:50;33.40;75.00
18384;DHT22;9318;48.644;9.456;2023-10-13T08:27:40;33.20;76.20
18384;DHT22;9318;48.644;9.456;2023-10-13T08:30:31;33.80;75.80
18384;DHT22;9318;48.644;9.456;2023-10-13T08:32:59;34.60;73.50
18384;DHT22;9318;48.644;9.456;2023-10-13T08:35:42;35.00;72.20
18384;DHT22;9318;48.644;9.456;2023-10-13T08:38:21;34.80;71.30
18384;DHT22;9318;48.644;9.456;2023-10-13T08:40:57;33.90;73.20
18384;DHT22;9318;48.644;9.456;2023-10-13T08:43:42;33.40;74.20
18384;DHT22;9318;48.644;9.456;2023-10-13T08:46:11;33.80;75.00
18384;DHT22;9318;48.644;9.456;2023-10-13T08:48:56;34.10;74.40
18384;DHT22;9318;48.644;9.456;2023-10-13T08:51:34;35.10;74.30
18384;DHT22;9318;48.644;9.456;2023-10-13T08:54:13;36.10;68.50
18384;DHT22;9318;48.644;9.456;2023-10-13T08:56:59;36.70;67.70
18384;DHT22;9318;48.644;9.456;2023-10-13T08:59:32;37.00;65.80
18384;DHT22;9318;48.644;9.456;2023-10-13T09:02:11;37.60;63.50
18384;DHT22;9318;48.644;9.456;2023-10-13T09:04:42;37.70;60.10
18384;DHT22;9318;48.644;9.456;2023-10-13T09:07:10;38.00;58.50
18384;DHT22;9318;48.644;9.456;2023-10-13T09:09:49;38.10;58.90
18384;DHT22;9318;48.644;9.456;2023-10-13T09:12:37;38.70;56.10
18384;DHT22;9318;48.644;9.456;2023-10-13T09:15:06;39.50;57.00
18384;DHT22;9318;48.644;9.456;2023-10-13T09:17:44;39.00;53.40
18384;DHT22;9318;48.644;9.456;2023-10-13T09:20:14;39.60;48.80
18384;DHT22;9318;48.644;9.456;2023-10-13T09:22:58;39.20;51.00
18384;DHT22;9318;48.644;9.456;2023-10-13T09:25:36;39.00;51.40
18384;DHT22;9318;48.644;9.456;2023-10-13T09:28:10;38.20;46.80
18384;DHT22;9318;48.644;9.456;2023-10-13T09:30:44;37.20;50.40
18384;DHT22;9318;48.644;9.456;2023-10-13T09:33:10;37.80;50.70
18384;DHT22;9318;48.644;9.456;2023-10-13T09:35:43;37.80;47.10
18384;DHT22;9318;48.644;9.456;2023-10-13T09:38:09;37.70;47.40
18384;DHT22;9318;48.644;9.456;2023-10-13T09:40:40;37.60;47.10
18384;DHT22;9318;48.644;9.456;2023-10-13T09:43:12;38.20;47.70
18384;DHT22;9318;48.644;9.456;2023-10-13T09:45:41;38.70;47.10
18384;DHT22;9318;48.644;9.456;2023-10-13T09:48:10;39.40;45.80
18384;DHT22;9318;48.644;9.456;2023-10-13T09:50:43;39.50;45.90
18384;DHT22;9318;48.644;9.456;2023-10-13T09:53:10;38.50;46.00
18384;DHT22;9318;48.644;9.456;2023-10-13T09:55:43;38.50;49.10
18384;DHT22;9318;48.644;9.456;2023-10-13T09:58:12;39.10;45.20
18384;DHT22;9318;48.644;9.456;2023-10-13T10:00:46;38.80;44.70
18384;DHT22;9318;48.644;9.456;2023-10-13T10:03:15;38.20;43.40
18384;DHT22;9318;48.644;9.456;2023-10-13T10:05:57;37.30;46.20
18384;DHT22;9318;48.644;9.456;2023-10-13T10:08:29;37.00;46.50
18384;DHT22;9318;48.644;9.456;2023-10-13T10:11:30;37.10;46.00
18384;DHT22;9318;48.644;9.456;2023-10-13T10:14:07;36.70;46.30
18384;DHT22;9318;48.644;9.456;2023-10-13T10:16:42;35.30;47.70
18384;DHT22;9318;48.644;9.456;2023-10-13T10:19:12;35.00;49.10
18384;DHT22;9318;48.644;9.456;2023-10-13T10:21:38;34.60;49.40
18384;DHT22;9318;48.644;9.456;2023-10-13T10:24:16;34.30;50.60
18384;DHT22;9318;48.644;9.456;2023-10-13T10:26:52;34.00;48.50
18384;DHT22;9318;48.644;9.456;2023-10-13T10:29:19;33.70;52.00
18384;DHT22;9318;48.644;9.456;2023-10-13T10:31:45;33.30;50.00
18384;DHT22;9318;48.644;9.456;2023-10-13T10:34:13;32.80;50.30
18384;DHT22;9318;48.644;9.456;2023-10-13T10:36:46;32.50;53.20
18384;DHT22;9318;48.644;9.456;2023-10-13T10:39:13;32.00;52.80
18384;DHT22;9318;48.644;9.456;2023-10-13T10:41:41;31.50;54.60
18384;DHT22;9318;48.644;9.456;2023-10-13T10:44:18;31.10;54.40
18384;DHT22;9318;48.644;9.456;2023-10-13T10:47:09;30.60;55.10
18384;DHT22;9318;48.644;9.456;2023-10-13T10:49:37;30.10;59.10
18384;DHT22;9318;48.644;9.456;2023-10-13T10:52:09;29.90;57.70
18384;DHT22;9318;48.644;9.456;2023-10-13T10:54:43;29.90;54.90
18384;DHT22;9318;48.644;9.456;2023-10-13T10:57:17;29.80;57.30
18384;DHT22;9318;48.644;9.456;2023-10-13T10:59:45;29.90;55.50
18384;DHT22;9318;48.644;9.456;2023-10-13T11:02:13;29.70;56.20
18384;DHT22;9318;48.644;9.456;2023-10-13T11:04:51;29.40;55.90
18384;DHT22;9318;48.644;9.456;2023-10-13T11:07:22;29.10;57.90
18384;DHT22;9318;48.644;9.456;2023-10-13T11:09:50;29.10;57.70
18384;DHT22;9318;48.644;9.456;2023-10-13T11:12:19;29.10;59.20
18384;DHT22;9318;48.644;9.456;2023-10-13T11:15:06;29.20;58.70
18384;DHT22;9318;48.644;9.456;2023-10-13T11:17:39;29.40;58.70
18384;DHT22;9318;48.644;9.456;2023-10-13T11:20:17;29.70;57.20
18384;DHT22;9318;48.644;9.456;2023-10-13T11:22:51;29.70;56.00
18384;DHT22;9318;48.644;9.456;2023-10-13T11:25:23;29.50;57.20
18384;DHT22;9318;48.644;9.456;2023-10-13T11:27:56;29.50;58.10
18384;DHT22;9318;48.644;9.456;2023-10-13T11:30:27;29.40;56.00
18384;DHT22;9318;48.644;9.456;2023-10-13T11:33:09;29.50;55.50
18384;DHT22;9318;48.644;9.456;2023-10-13T11:35:37;29.50;55.90
18384;DHT22;9318;48.644;9.456;2023-10-13T11:38:22;29.70;55.00
18384;DHT22;9318;48.644;9.456;2023-10-13T11:40:53;29.90;56.00
18384;DHT22;9318;48.644;9.456;2023-10-13T11:43:39;30.00;53.90
18384;DHT22;9318;48.644;9.456;2023-10-13T11:46:27;29.90;53.80
18384;DHT22;9318;48.644;9.456;2023-10-13T11:49:12;29.90;54.20
18384;DHT22;9318;48.644;9.456;2023-10-13T11:51:57;29.70;53.60
18384;DHT22;9318;48.644;9.456;2023-10-13T11:54:34;29.70;55.50
18384;DHT22;9318;48.644;9.456;2023-10-13T11:57:07;29.80;54.00
18384;DHT22;9318;48.644;9.456;2023-10-13T11:59:34;29.80;53.90
18384;DHT22;9318;48.644;9.456;2023-10-13T12:02:07;29.80;53.10
18384;DHT22;9318;48.644;9.456;2023-10-13T12:04:51;29.90;55.00
18384;DHT22;9318;48.644;9.456;2023-10-13T12:07:21;29.80;53.20
18384;DHT22;9318;48.644;9.456;2023-10-13T12:09:52;29.80;53.10
18384;DHT22;9318;48.644;9.456;2023-10-13T12:12:31;29.80;54.10
18384;DHT22;9318;48.644;9.456;2023-10-13T12:15:06;29.80;51.90
18384;DHT22;9318;48.644;9.456;2023-10-13T12:17:40;29.70;53.40
18384;DHT22;9318;48.644;9.456;2023-10-13T12:20:11;29.70;54.70
18384;DHT22;9318;48.644;9.456;2023-10-13T12:22:44;29.90;53.60
18384;DHT22;9318;48.644;9.456;2023-10-13T12:25:20;29.80;53.90
18384;DHT22;9318;48.644;9.456;2023-10-13T12:28:00;29.90;53.70
18384;DHT22;9318;48.644;9.456;2023-10-13T12:30:38;29.90;53.70
18384;DHT22;9318;48.644;9.456;2023-10-13T12:33:16;29.90;53.60
18384;DHT22;9318;48.644;9.456;2023-10-13T12:35:50;30.00;52.90
18384;DHT22;9318;48.644;9.456;2023-10-13T12:38:29;30.00;53.70
18384;DHT22;9318;48.644;9.456;2023-10-13T12:41:16;30.00;52.90
18384;DHT22;9318;48.644;9.456;2023-10-13T12:44:01;29.90;51.80
18384;DHT22;9318;48.644;9.456;2023-10-13T12:46:42;29.70;52.70
18384;DHT22;9318;48.644;9.456;2023-10-13T12:49:27;29.70;53.10
18384;DHT22;9318;48.644;9.456;2023-10-13T12:52:15;29.70;52.40
18384;DHT22;9318;48.644;9.456;2023-10-13T12:54:44;29.60;55.00
18384;DHT22;9318;48.644;9.456;2023-10-13T12:57:12;29.60;52.90
18384;DHT22;9318;48.644;9.456;2023-10-13T12:59:39;29.70;53.30
18384;DHT22;9318;48.644;9.456;2023-10-13T13:02:06;29.80;56.00
18384;DHT22;9318;48.644;9.456;2023-10-13T13:04:41;29.90;53.50
18384;DHT22;9318;48.644;9.456;2023-10-13T13:07:10;29.90;53.60
18384;DHT22;9318;48.644;9.456;2023-10-13T13:09:39;29.80;52.60
18384;DHT22;9318;48.644;9.456;2023-10-13T13:12:06;29.50;55.30
18384;DHT22;9318;48.644;9.456;2023-10-13T13:14:33;29.40;54.90
18384;DHT22;9318;48.644;9.456;2023-10-13T13:17:00;29.40;54.80
18384;DHT22;9318;48.644;9.456;2023-10-13T13:19:31;29.50;58.00
18384;DHT22;9318;48.644;9.456;2023-10-13T13:22:02;29.80;54.80
18384;DHT22;9318;48.644;9.456;2023-10-13T13:24:30;30.00;54.00
18384;DHT22;9318;48.644;9.456;2023-10-13T13:26:56;30.00;54.90
18384;DHT22;9318;48.644;9.456;2023-10-13T13:29:28;30.00;52.80
18384;DHT22;9318;48.644;9.456;2023-10-13T13:31:55;29.90;53.00
18384;DHT22;9318;48.644;9.456;2023-10-13T13:34:22;29.60;53.10
18384;DHT22;9318;48.644;9.456;2023-10-13T13:36:49;29.30;53.20
18384;DHT22;9318;48.644;9.456;2023-10-13T13:39:19;29.10;53.50
18384;DHT22;9318;48.644;9.456;2023-10-13T13:41:54;28.90;53.70
18384;DHT22;9318;48.644;9.456;2023-10-13T13:44:23;28.70;54.00
18384;DHT22;9318;48.644;9.456;2023-10-13T13:46:56;28.70;54.50
18384;DHT22;9318;48.644;9.456;2023-10-13T13:49:23;28.80;54.30
18384;DHT22;9318;48.644;9.456;2023-10-13T13:51:55;29.00;53.00
18384;DHT22;9318;48.644;9.456;2023-10-13T13:54:23;29.20;53.50
18384;DHT22;9318;48.644;9.456;2023-10-13T13:56:53;29.30;53.10
18384;DHT22;9318;48.644;9.456;2023-10-13T13:59:20;29.30;52.40
18384;DHT22;9318;48.644;9.456;2023-10-13T14:01:47;29.40;53.20
18384;DHT22;9318;48.644;9.456;2023-10-13T14:04:13;29.50;54.60
18384;DHT22;9318;48.644;9.456;2023-10-13T14:06:43;29.60;53.30
18384;DHT22;9318;48.644;9.456;2023-10-13T14:09:11;29.80;51.50
18384;DHT22;9318;48.644;9.456;2023-10-13T14:11:43;29.90;51.20
18384;DHT22;9318;48.644;9.456;2023-10-13T14:14:24;29.90;50.70
18384;DHT22;9318;48.644;9.456;2023-10-13T14:16:59;29.70;50.40
18384;DHT22;9318;48.644;9.456;2023-10-13T14:19:32;29.60;50.70
18384;DHT22;9318;48.644;9.456;2023-10-13T14:22:00;29.60;50.00
18384;DHT22;9318;48.644;9.456;2023-10-13T14:24:32;29.40;50.60
18384;DHT22;9318;48.644;9.456;2023-10-13T14:27:02;29.40;51.20
18384;DHT22;9318;48.644;9.456;2023-10-13T14:29:34;29.40;49.60
18384;DHT22;9318;48.644;9.456;2023-10-13T14:32:06;29.30;49.50
18384;DHT22;9318;48.644;9.456;2023-10-13T14:34:38;29.20;50.70
18384;DHT22;9318;48.644;9.456;2023-10-13T14:37:05;29.10;50.80
18384;DHT22;9318;48.644;9.456;2023-10-13T14:39:31;29.00;50.20
18384;DHT22;9318;48.644;9.456;2023-10-13T14:42:01;28.80;51.90
18384;DHT22;9318;48.644;9.456;2023-10-13T14:44:32;28.60;51.70
18384;DHT22;9318;48.644;9.456;2023-10-13T14:46:59;28.60;51.40
18384;DHT22;9318;48.644;9.456;2023-10-13T14:49:25;28.50;52.00
18384;DHT22;9318;48.644;9.456;2023-10-13T14:51:52;28.50;52.50
18384;DHT22;9318;48.644;9.456;2023-10-13T14:54:20;28.40;53.60
18384;DHT22;9318;48.644;9.456;2023-10-13T14:56:58;28.30;52.30
18384;DHT22;9318;48.644;9.456;2023-10-13T14:59:27;28.20;53.20
18384;DHT22;9318;48.644;9.456;2023-10-13T15:01:59;28.20;51.70
18384;DHT22;9318;48.644;9.456;2023-10-13T15:04:26;28.20;51.50
18384;DHT22;9318;48.644;9.456;2023-10-13T15:06:54;28.10;52.80
18384;DHT22;9318;48.644;9.456;2023-10-13T15:09:20;28.00;52.20
18384;DHT22;9318;48.644;9.456;2023-10-13T15:11:49;27.90;51.00
18384;DHT22;9318;48.644;9.456;2023-10-13T15:14:19;27.90;51.40
18384;DHT22;9318;48.644;9.456;2023-10-13T15:16:49;27.80;52.60
18384;DHT22;9318;48.644;9.456;2023-10-13T15:19:17;27.70;50.40
18384;DHT22;9318;48.644;9.456;2023-10-13T15:21:44;27.60;50.80
18384;DHT22;9318;48.644;9.456;2023-10-13T15:24:15;27.50;52.10
18384;DHT22;9318;48.644;9.456;2023-10-13T15:26:42;27.50;50.60
18384;DHT22;9318;48.644;9.456;2023-10-13T15:29:14;27.50;51.70
18384;DHT22;9318;48.644;9.456;2023-10-13T15:31:43;27.40;51.10
18384;DHT22;9318;48.644;9.456;2023-10-13T15:34:31;27.30;51.80
18384;DHT22;9318;48.644;9.456;2023-10-13T15:37:00;27.30;52.10
18384;DHT22;9318;48.644;9.456;2023-10-13T15:39:30;27.10;51.60
18384;DHT22;9318;48.644;9.456;2023-10-13T15:41:57;27.10;51.90
18384;DHT22;9318;48.644;9.456;2023-10-13T15:44:24;27.00;51.10
18384;DHT22;9318;48.644;9.456;2023-10-13T15:46:56;26.90;51.50
18384;DHT22;9318;48.644;9.456;2023-10-13T15:49:23;26.90;50.70
18384;DHT22;9318;48.644;9.456;2023-10-13T15:51:54;26.90;50.90
18384;DHT22;9318;48.644;9.456;2023-10-13T15:54:22;26.80;51.00
18384;DHT22;9318;48.644;9.456;2023-10-13T15:56:50;26.70;52.50
18384;DHT22;9318;48.644;9.456;2023-10-13T15:59:17;26.70;51.40
18384;DHT22;9318;48.644;9.456;2023-10-13T16:01:44;26.50;51.70
18384;DHT22;9318;48.644;9.456;2023-10-13T16:04:12;26.40;51.70
18384;DHT22;9318;48.644;9.456;2023-10-13T16:06:39;26.30;51.20
18384;DHT22;9318;48.644;9.456;2023-10-13T16:09:08;26.20;51.40
18384;DHT22;9318;48.644;9.456;2023-10-13T16:11:40;26.20;51.90
18384;DHT22;9318;48.644;9.456;2023-10-13T16:14:08;26.10;53.40
18384;DHT22;9318;48.644;9.456;2023-10-13T16:16:41;26.00;52.70
18384;DHT22;9318;48.644;9.456;2023-10-13T16:19:10;25.90;52.40
18384;DHT22;9318;48.644;9.456;2023-10-13T16:21:36;25.80;52.80
18384;DHT22;9318;48.644;9.456;2023-10-13T16:24:05;25.70;53.90